createdAt,value
2023-01-29T00:00:18.316Z,31.13
2023-01-29T00:02:20.786Z,30.00
2023-01-29T00:04:23.240Z,33.57
2023-01-29T00:06:28.573Z,29.57
2023-01-29T00:08:32.689Z,33.00
2023-01-29T00:10:34.856Z,29.73
2023-01-29T00:12:37.106Z,27.07
2023-01-29T00:14:39.363Z,32.93
2023-01-29T00:16:41.577Z,34.87
2023-01-29T00:18:44.087Z,33.43
2023-01-29T00:20:46.512Z,29.10
2023-01-29T00:22:49.132Z,31.33
2023-01-29T00:24:51.273Z,29.57
2023-01-29T00:26:53.722Z,31.60
2023-01-29T00:29:00.799Z,32.43
2023-01-29T00:31:15.365Z,29.60
2023-01-29T00:33:19.342Z,28.70
2023-01-29T00:35:21.782Z,27.93
2023-01-29T00:37:24.033Z,31.50
2023-01-29T00:39:31.418Z,31.23
2023-01-29T00:42:00.041Z,28.33
2023-01-29T00:44:20.384Z,28.67
2023-01-29T00:46:22.542Z,27.17
2023-01-29T00:48:24.881Z,24.90
2023-01-29T00:50:26.948Z,23.73
2023-01-29T00:52:30.086Z,25.73
2023-01-29T00:54:33.195Z,25.13
2023-01-29T00:56:37.459Z,25.10
2023-01-29T00:58:39.859Z,24.00
2023-01-29T01:00:44.265Z,24.00
2023-01-29T01:03:05.192Z,26.37
2023-01-29T01:05:14.274Z,22.80
2023-01-29T01:07:18.149Z,26.10
2023-01-29T01:09:38.794Z,24.63
2023-01-29T01:11:40.877Z,25.13
2023-01-29T01:13:43.351Z,25.83
2023-01-29T01:15:45.512Z,21.03
2023-01-29T01:17:49.218Z,32.30
2023-01-29T01:19:51.596Z,27.53
2023-01-29T01:21:53.930Z,32.73
2023-01-29T01:23:56.394Z,31.23
2023-01-29T01:26:01.119Z,30.43
2023-01-29T01:28:03.294Z,25.27
2023-01-29T01:30:06.052Z,22.67
2023-01-29T01:32:08.392Z,25.37
2023-01-29T01:34:10.775Z,22.23
2023-01-29T01:36:14.083Z,26.77
2023-01-29T01:38:16.232Z,29.17
2023-01-29T01:40:21.168Z,33.17
2023-01-29T01:42:24.290Z,27.27
2023-01-29T01:44:53.650Z,26.80
2023-01-29T01:46:56.038Z,27.00
2023-01-29T01:49:04.462Z,23.40
2023-01-29T01:51:07.206Z,23.87
2023-01-29T01:53:19.862Z,23.47
2023-01-29T01:55:25.720Z,27.03
2023-01-29T01:57:30.627Z,27.27
2023-01-29T01:59:34.210Z,29.13
2023-01-29T02:01:38.419Z,29.83
2023-01-29T02:04:13.486Z,30.70
2023-01-29T02:06:34.786Z,28.77
2023-01-29T02:09:21.082Z,31.80
2023-01-29T02:11:24.304Z,30.10
2023-01-29T02:13:27.266Z,26.80
2023-01-29T02:15:29.816Z,26.30
2023-01-29T02:17:32.427Z,24.47
2023-01-29T02:19:46.783Z,23.73
2023-01-29T02:22:20.975Z,25.43
2023-01-29T02:24:44.789Z,22.03
2023-01-29T02:27:37.844Z,23.20
2023-01-29T02:29:50.947Z,26.17
2023-01-29T02:32:05.110Z,24.47
2023-01-29T02:34:18.282Z,27.10
2023-01-29T02:36:43.139Z,24.63
2023-01-29T02:39:02.624Z,24.53
2023-01-29T02:41:14.424Z,25.20
2023-01-29T02:43:24.583Z,24.57
2023-01-29T02:45:35.576Z,31.50
2023-01-29T02:47:50.414Z,28.80
2023-01-29T02:50:14.531Z,25.50
2023-01-29T02:55:46.643Z,25.50
2023-01-29T02:57:51.173Z,23.40
2023-01-29T02:59:59.056Z,27.60
2023-01-29T03:02:10.607Z,23.73
2023-01-29T03:04:20.627Z,27.20
2023-01-29T03:06:29.822Z,25.93
2023-01-29T03:08:45.794Z,27.30
2023-01-29T03:10:59.753Z,27.43
2023-01-29T03:13:08.575Z,28.60
2023-01-29T03:15:18.369Z,26.00
2023-01-29T03:17:44.489Z,28.97
2023-01-29T03:19:48.038Z,27.53
2023-01-29T03:22:04.338Z,27.70
2023-01-29T03:28:18.508Z,27.60
2023-01-29T03:30:43.978Z,26.33
2023-01-29T03:33:11.540Z,28.60
2023-01-29T03:35:21.933Z,26.93
2023-01-29T03:37:35.101Z,28.03
2023-01-29T03:39:43.231Z,27.30
2023-01-29T03:41:47.747Z,29.70
2023-01-29T03:44:14.105Z,28.80
2023-01-29T03:46:41.896Z,27.90
2023-01-29T03:49:22.019Z,27.07
2023-01-29T03:51:40.415Z,28.23
2023-01-29T03:53:48.918Z,25.00
2023-01-29T03:56:07.393Z,23.70
2023-01-29T03:58:33.791Z,25.73
2023-01-29T04:00:45.456Z,27.03
2023-01-29T04:03:11.145Z,30.13
2023-01-29T04:05:20.651Z,26.43
2023-01-29T04:07:46.345Z,27.27
2023-01-29T04:10:01.005Z,27.57
2023-01-29T04:12:10.674Z,25.90
2023-01-29T04:14:17.990Z,26.47
2023-01-29T04:16:27.410Z,28.07
2023-01-29T04:19:01.789Z,27.33
2023-01-29T04:21:13.314Z,26.40
2023-01-29T04:23:25.935Z,26.77
2023-01-29T04:25:43.655Z,27.37
2023-01-29T04:28:43.541Z,28.60
2023-01-29T04:30:46.219Z,24.97
2023-01-29T04:33:08.464Z,31.73
2023-01-29T04:36:20.576Z,31.50
2023-01-29T04:38:25.871Z,30.57
2023-01-29T04:40:40.657Z,30.53
2023-01-29T04:43:09.310Z,27.33
2023-01-29T04:45:59.201Z,28.93
2023-01-29T04:48:26.082Z,26.07
2023-01-29T04:50:47.445Z,27.80
2023-01-29T04:53:04.913Z,28.33
2023-01-29T04:55:36.200Z,29.87
2023-01-29T04:57:42.551Z,29.60
2023-01-29T04:59:56.133Z,28.43
2023-01-29T05:02:02.544Z,32.70
2023-01-29T05:04:14.697Z,31.03
2023-01-29T05:06:19.532Z,30.43
2023-01-29T05:08:25.514Z,29.43
2023-01-29T05:10:28.228Z,30.37
2023-01-29T05:12:31.472Z,27.77
2023-01-29T05:14:35.365Z,30.27
2023-01-29T05:16:47.735Z,31.33
2023-01-29T05:18:50.286Z,28.77
2023-01-29T05:20:56.813Z,28.13
2023-01-29T05:22:59.603Z,30.73
2023-01-29T05:25:01.898Z,26.70
2023-01-29T05:27:23.026Z,28.93
2023-01-29T05:29:25.056Z,30.00
2023-01-29T05:31:27.322Z,27.73
2023-01-29T05:33:31.653Z,30.17
2023-01-29T05:35:34.132Z,29.80
2023-01-29T05:37:36.311Z,34.63
2023-01-29T05:39:38.472Z,27.97
2023-01-29T05:41:44.052Z,27.83
2023-01-29T05:43:46.175Z,31.80
2023-01-29T05:45:58.382Z,29.70
2023-01-29T05:48:01.555Z,31.80
2023-01-29T05:50:04.140Z,30.50
2023-01-29T05:52:09.559Z,32.10
2023-01-29T05:54:13.154Z,29.33
2023-01-29T05:56:15.234Z,27.67
2023-01-29T05:58:19.826Z,32.53
2023-01-29T06:00:22.625Z,29.27
2023-01-29T06:02:24.783Z,31.27
2023-01-29T06:04:27.020Z,29.47
2023-01-29T06:06:29.106Z,27.13
2023-01-29T06:08:31.911Z,30.60
2023-01-29T06:10:34.345Z,27.83
2023-01-29T06:12:36.635Z,32.13
2023-01-29T06:14:38.791Z,30.10
2023-01-29T06:16:40.969Z,28.17
2023-01-29T06:18:43.452Z,26.97
2023-01-29T06:20:45.606Z,30.40
2023-01-29T06:22:47.680Z,28.87
2023-01-29T06:24:49.783Z,31.60
2023-01-29T06:26:52.227Z,31.80
2023-01-29T06:28:54.412Z,30.60
2023-01-29T06:31:22.152Z,30.03
2023-01-29T06:33:26.702Z,29.80
2023-01-29T06:35:30.343Z,28.07
2023-01-29T06:37:32.620Z,29.40
2023-01-29T06:39:35.057Z,37.70
2023-01-29T06:41:37.450Z,52.53
2023-01-29T06:43:40.158Z,103.40
2023-01-29T06:46:08.655Z,181.50
2023-01-29T06:48:13.578Z,221.43
2023-01-29T06:50:16.102Z,181.53
2023-01-29T06:52:18.517Z,197.40
2023-01-29T06:54:20.805Z,148.83
2023-01-29T06:56:24.017Z,109.97
2023-01-29T06:58:26.180Z,91.03
2023-01-29T07:00:31.819Z,89.23
2023-01-29T07:02:33.971Z,95.40
2023-01-29T07:04:36.870Z,79.60
2023-01-29T07:06:39.351Z,72.63
2023-01-29T07:08:41.446Z,95.83
2023-01-29T07:10:43.601Z,100.07
2023-01-29T07:12:45.782Z,110.00
2023-01-29T07:14:48.038Z,94.93
2023-01-29T07:16:50.505Z,83.27
2023-01-29T07:18:52.877Z,79.03
2023-01-29T07:20:55.451Z,74.00
2023-01-29T07:22:58.455Z,64.63
2023-01-29T07:25:00.579Z,53.10
2023-01-29T07:27:03.052Z,58.80
2023-01-29T07:29:05.739Z,54.10
2023-01-29T07:31:12.368Z,57.10
2023-01-29T07:33:14.526Z,84.83
2023-01-29T07:35:16.705Z,67.27
2023-01-29T07:37:18.989Z,59.57
2023-01-29T07:39:21.340Z,50.23
2023-01-29T07:41:25.695Z,51.67
2023-01-29T07:43:28.025Z,41.93
2023-01-29T07:45:31.015Z,48.67
2023-01-29T07:47:33.281Z,41.40
2023-01-29T07:49:35.402Z,40.57
2023-01-29T07:51:40.220Z,39.47
2023-01-29T07:53:44.689Z,45.10
2023-01-29T07:55:46.799Z,44.50
2023-01-29T07:57:55.211Z,37.60
2023-01-29T07:59:57.699Z,37.57
2023-01-29T08:02:03.181Z,36.63
2023-01-29T08:04:05.441Z,33.63
2023-01-29T08:06:07.746Z,34.27
2023-01-29T08:08:11.261Z,31.30
2023-01-29T08:10:13.503Z,46.77
2023-01-29T08:12:15.732Z,65.90
2023-01-29T08:14:17.835Z,64.10
2023-01-29T08:16:20.370Z,54.87
2023-01-29T08:18:23.039Z,46.10
2023-01-29T08:20:26.104Z,43.73
2023-01-29T08:22:28.190Z,53.17
2023-01-29T08:24:41.595Z,47.40
2023-01-29T08:26:52.898Z,51.67
2023-01-29T08:28:59.446Z,56.63
2023-01-29T08:31:02.303Z,59.63
2023-01-29T08:33:05.191Z,48.23
2023-01-29T08:35:07.856Z,51.53
2023-01-29T08:37:09.978Z,44.60
2023-01-29T08:39:12.432Z,42.07
2023-01-29T08:41:14.720Z,34.20
2023-01-29T08:43:18.003Z,27.83
2023-01-29T08:45:20.314Z,31.03
2023-01-29T08:47:23.004Z,49.67
2023-01-29T08:49:25.169Z,45.37
2023-01-29T08:51:27.277Z,42.03
2023-01-29T08:53:31.881Z,41.80
2023-01-29T08:55:39.810Z,54.47
2023-01-29T08:57:42.027Z,48.07
2023-01-29T08:59:44.038Z,43.03
2023-01-29T09:01:46.160Z,34.67
2023-01-29T09:03:48.021Z,40.03
2023-01-29T09:05:50.191Z,40.23
2023-01-29T09:07:54.174Z,38.57
2023-01-29T09:09:56.576Z,31.63
2023-01-29T09:11:59.172Z,42.00
2023-01-29T09:14:01.322Z,50.03
2023-01-29T09:16:04.985Z,43.00
2023-01-29T09:18:07.276Z,43.50
2023-01-29T09:20:10.267Z,47.33
2023-01-29T09:22:12.457Z,45.53
2023-01-29T09:24:14.578Z,37.10
2023-01-29T09:26:16.924Z,34.33
2023-01-29T09:28:18.888Z,32.20
2023-01-29T09:30:46.003Z,27.53
2023-01-29T09:32:54.659Z,33.87
2023-01-29T09:34:57.881Z,38.70
2023-01-29T09:36:59.911Z,35.03
2023-01-29T09:39:02.035Z,27.80
2023-01-29T09:41:04.010Z,27.50
2023-01-29T09:43:17.057Z,25.27
2023-01-29T09:45:25.786Z,31.30
2023-01-29T09:47:30.049Z,28.27
2023-01-29T09:49:42.478Z,28.20
2023-01-29T09:51:53.415Z,29.60
2023-01-29T09:54:07.508Z,27.20
2023-01-29T09:56:17.289Z,30.40
2023-01-29T09:58:24.717Z,32.10
2023-01-29T10:00:32.141Z,31.03
2023-01-29T10:02:52.336Z,34.33
2023-01-29T10:05:28.351Z,32.80
2023-01-29T10:07:58.452Z,34.53
2023-01-29T10:10:11.082Z,32.00
2023-01-29T10:12:40.715Z,25.57
2023-01-29T10:15:20.130Z,33.33
2023-01-29T10:17:30.919Z,36.73
2023-01-29T10:19:55.188Z,30.90
2023-01-29T10:22:51.568Z,24.93
2023-01-29T10:25:03.310Z,24.60
2023-01-29T10:27:17.247Z,22.53
2023-01-29T10:29:22.220Z,21.87
2023-01-29T10:31:33.461Z,22.63
2023-01-29T10:34:01.464Z,22.83
2023-01-29T10:36:09.949Z,19.63
2023-01-29T10:38:38.880Z,21.63
2023-01-29T10:40:49.736Z,24.53
2023-01-29T10:43:04.421Z,25.57
2023-01-29T10:45:35.801Z,28.57
2023-01-29T10:47:55.628Z,22.90
2023-01-29T10:50:34.860Z,22.50
2023-01-29T10:53:05.047Z,26.23
2023-01-29T10:55:29.577Z,21.13
2023-01-29T10:57:49.997Z,22.97
2023-01-29T11:00:33.791Z,18.50
2023-01-29T11:02:36.114Z,25.13
2023-01-29T11:04:39.320Z,21.97
2023-01-29T11:06:41.803Z,23.03
2023-01-29T11:08:54.543Z,23.53
2023-01-29T11:11:13.072Z,23.53
2023-01-29T11:13:16.561Z,24.50
2023-01-29T11:15:21.098Z,28.57
2023-01-29T11:17:24.929Z,23.73
2023-01-29T11:19:42.127Z,23.60
2023-01-29T11:21:59.228Z,23.17
2023-01-29T11:24:08.726Z,25.47
2023-01-29T11:26:22.136Z,26.67
2023-01-29T11:28:40.375Z,31.23
2023-01-29T11:30:42.989Z,27.33
2023-01-29T11:32:45.144Z,26.07
2023-01-29T11:34:57.315Z,23.67
2023-01-29T11:37:04.633Z,21.70
2023-01-29T11:39:15.826Z,23.57
2023-01-29T11:41:22.465Z,22.13
2023-01-29T11:43:27.549Z,22.73
2023-01-29T11:45:32.510Z,30.10
2023-01-29T11:47:34.804Z,39.50
2023-01-29T11:49:38.454Z,27.87
2023-01-29T11:51:41.688Z,27.17
2023-01-29T11:53:49.984Z,26.27
2023-01-29T11:55:52.474Z,18.90
2023-01-29T11:58:05.121Z,18.53
2023-01-29T12:00:20.716Z,18.47
2023-01-29T12:02:38.986Z,19.83
2023-01-29T12:04:41.479Z,16.50
2023-01-29T12:06:45.590Z,16.00
2023-01-29T12:08:56.555Z,16.97
2023-01-29T12:11:10.840Z,14.20
2023-01-29T12:13:12.937Z,16.00
2023-01-29T12:15:19.767Z,12.60
2023-01-29T12:17:26.949Z,14.57
2023-01-29T12:19:29.122Z,31.40
2023-01-29T12:21:41.184Z,27.60
2023-01-29T12:24:04.426Z,27.73
2023-01-29T12:26:16.688Z,18.07
2023-01-29T12:28:34.237Z,13.50
2023-01-29T12:31:15.861Z,13.83
2023-01-29T12:33:27.269Z,12.53
2023-01-29T12:35:33.533Z,16.17
2023-01-29T12:37:49.956Z,13.87
2023-01-29T12:39:52.728Z,15.67
2023-01-29T12:42:01.692Z,13.57
2023-01-29T12:44:21.184Z,14.07
2023-01-29T12:46:29.593Z,14.73
2023-01-29T12:48:42.569Z,16.17
2023-01-29T12:50:47.309Z,13.80
2023-01-29T12:52:49.296Z,14.77
2023-01-29T12:55:01.936Z,13.00
2023-01-29T12:57:10.394Z,13.70
2023-01-29T12:59:29.364Z,11.83
2023-01-29T13:01:38.865Z,17.67
2023-01-29T13:03:51.924Z,17.37
2023-01-29T13:05:59.460Z,15.20
2023-01-29T13:08:17.865Z,14.27
2023-01-29T13:10:26.957Z,13.90
2023-01-29T13:12:29.632Z,12.63
2023-01-29T13:14:51.762Z,13.77
2023-01-29T13:17:02.036Z,15.40
2023-01-29T13:19:07.687Z,13.10
2023-01-29T13:21:16.345Z,13.47
2023-01-29T13:23:28.671Z,15.67
2023-01-29T13:25:30.830Z,13.23
2023-01-29T13:27:35.474Z,14.87
2023-01-29T13:29:38.174Z,13.63
2023-01-29T13:31:41.425Z,15.80
2023-01-29T13:33:44.116Z,12.17
2023-01-29T13:35:46.515Z,15.27
2023-01-29T13:37:52.053Z,12.60
2023-01-29T13:39:55.800Z,11.57
2023-01-29T13:42:00.532Z,12.43
2023-01-29T13:44:07.865Z,12.30
2023-01-29T13:46:14.559Z,11.97
2023-01-29T13:48:36.995Z,13.50
2023-01-29T13:50:42.517Z,13.50
2023-01-29T13:52:52.248Z,15.73
2023-01-29T13:55:07.563Z,16.87
2023-01-29T13:57:55.714Z,14.33
2023-01-29T13:59:58.944Z,14.97
2023-01-29T14:02:05.465Z,13.33
2023-01-29T14:04:19.813Z,12.80
2023-01-29T14:06:45.001Z,18.90
2023-01-29T14:08:47.651Z,26.50
2023-01-29T14:11:15.547Z,18.83
2023-01-29T14:13:21.506Z,15.83
2023-01-29T14:15:27.175Z,18.23
2023-01-29T14:17:29.659Z,14.30
2023-01-29T14:19:31.951Z,13.47
2023-01-29T14:21:37.873Z,16.47
2023-01-29T14:23:48.724Z,16.47
2023-01-29T14:25:51.409Z,15.90
2023-01-29T14:27:53.576Z,19.80
2023-01-29T14:30:02.616Z,17.60
2023-01-29T14:32:07.266Z,13.10
2023-01-29T14:34:18.243Z,12.83
2023-01-29T14:36:22.760Z,13.27
2023-01-29T14:38:28.483Z,13.47
2023-01-29T14:40:32.740Z,13.37
2023-01-29T14:42:55.879Z,12.57
2023-01-29T14:44:59.792Z,13.03
2023-01-29T14:47:01.977Z,15.63
2023-01-29T14:49:03.983Z,15.00
2023-01-29T14:51:11.071Z,11.27
2023-01-29T14:53:20.026Z,13.40
2023-01-29T14:56:03.305Z,14.63
2023-01-29T14:58:07.349Z,12.73
2023-01-29T15:00:27.419Z,15.60
2023-01-29T15:02:38.373Z,16.70
2023-01-29T15:04:50.326Z,15.77
2023-01-29T15:07:04.585Z,13.23
2023-01-29T15:09:36.397Z,12.63
2023-01-29T15:11:58.962Z,16.27
2023-01-29T15:14:16.893Z,17.30
2023-01-29T15:16:31.441Z,19.67
2023-01-29T15:18:37.235Z,13.83
2023-01-29T15:20:41.642Z,16.93
2023-01-29T15:22:44.660Z,17.33
2023-01-29T15:25:01.998Z,18.30
2023-01-29T15:27:04.411Z,16.20
2023-01-29T15:29:07.433Z,15.63
2023-01-29T15:31:17.496Z,12.07
2023-01-29T15:33:19.884Z,13.57
2023-01-29T15:35:34.854Z,12.57
2023-01-29T15:37:37.985Z,12.53
2023-01-29T15:39:45.052Z,11.00
2023-01-29T15:41:47.982Z,12.50
2023-01-29T15:43:56.790Z,10.90
2023-01-29T15:46:01.934Z,12.90
2023-01-29T15:48:15.024Z,11.63
2023-01-29T15:50:18.135Z,14.10
2023-01-29T15:52:26.298Z,12.97
2023-01-29T15:54:32.818Z,18.07
2023-01-29T15:56:39.818Z,23.30
2023-01-29T15:58:42.931Z,27.23
2023-01-29T16:00:53.781Z,28.13
2023-01-29T16:02:57.281Z,25.03
2023-01-29T16:04:59.959Z,16.83
2023-01-29T16:07:04.124Z,15.17
2023-01-29T16:09:07.921Z,13.60
2023-01-29T16:11:10.767Z,12.70
2023-01-29T16:13:22.364Z,16.10
2023-01-29T16:15:32.505Z,20.83
2023-01-29T16:17:37.607Z,16.60
2023-01-29T16:19:39.788Z,16.03
2023-01-29T16:21:46.656Z,25.57
2023-01-29T16:23:52.103Z,29.70
2023-01-29T16:25:56.969Z,24.23
2023-01-29T16:27:59.227Z,19.43
2023-01-29T16:30:02.512Z,19.03
2023-01-29T16:32:06.598Z,20.70
2023-01-29T16:34:27.632Z,30.00
2023-01-29T16:36:29.845Z,24.90
2023-01-29T16:38:34.910Z,16.57
2023-01-29T16:40:39.044Z,17.33
2023-01-29T16:42:45.475Z,14.87
2023-01-29T16:45:04.451Z,15.10
2023-01-29T16:47:16.362Z,13.53
2023-01-29T16:49:27.109Z,16.27
2023-01-29T16:51:38.559Z,15.80
2023-01-29T16:53:40.745Z,16.63
2023-01-29T16:55:50.122Z,20.03
2023-01-29T16:57:56.762Z,15.83
2023-01-29T17:00:02.713Z,49.93
2023-01-29T17:02:14.632Z,62.00
2023-01-29T17:04:19.715Z,51.17
2023-01-29T17:06:24.995Z,37.07
2023-01-29T17:08:33.582Z,35.53
2023-01-29T17:10:36.407Z,49.97
2023-01-29T17:12:39.155Z,49.70
2023-01-29T17:14:57.091Z,43.93
2023-01-29T17:17:05.005Z,42.07
2023-01-29T17:19:18.479Z,45.47
2023-01-29T17:21:20.967Z,41.17
2023-01-29T17:23:23.745Z,40.60
2023-01-29T17:25:26.171Z,42.47
2023-01-29T17:27:28.846Z,39.70
2023-01-29T17:29:31.894Z,34.23
2023-01-29T17:31:37.107Z,24.33
2023-01-29T17:33:43.230Z,19.57
2023-01-29T17:35:45.840Z,16.83
2023-01-29T17:37:47.795Z,17.33
2023-01-29T17:39:53.146Z,15.53
2023-01-29T17:41:58.259Z,14.60
2023-01-29T17:44:00.381Z,12.23
2023-01-29T17:46:02.624Z,13.47
2023-01-29T17:48:05.831Z,14.43
2023-01-29T17:50:21.393Z,12.50
2023-01-29T17:52:23.291Z,11.57
2023-01-29T17:54:25.989Z,19.07
2023-01-29T17:56:28.232Z,36.53
2023-01-29T17:58:30.411Z,38.47
2023-01-29T18:00:32.521Z,32.20
2023-01-29T18:02:34.718Z,26.07
2023-01-29T18:04:38.600Z,35.43
2023-01-29T18:06:42.075Z,36.43
2023-01-29T18:08:44.214Z,35.33
2023-01-29T18:10:47.184Z,30.77
2023-01-29T18:12:49.268Z,36.60
2023-01-29T18:14:51.633Z,32.87
2023-01-29T18:16:54.712Z,44.10
2023-01-29T18:18:58.117Z,55.43
2023-01-29T18:21:00.601Z,50.17
2023-01-29T18:23:04.523Z,42.07
2023-01-29T18:25:07.217Z,34.87
2023-01-29T18:27:09.488Z,25.90
2023-01-29T18:29:11.564Z,28.50
2023-01-29T18:31:14.422Z,23.67
2023-01-29T18:33:17.935Z,21.17
2023-01-29T18:35:20.162Z,18.17
2023-01-29T18:37:22.132Z,19.63
2023-01-29T18:39:24.281Z,21.83
2023-01-29T18:41:26.402Z,19.73
2023-01-29T18:43:28.804Z,23.73
2023-01-29T18:45:31.515Z,23.13
2023-01-29T18:47:33.852Z,21.73
2023-01-29T18:49:39.149Z,46.63
2023-01-29T18:51:41.549Z,35.47
2023-01-29T18:53:45.362Z,24.40
2023-01-29T18:55:59.670Z,29.70
2023-01-29T18:58:26.818Z,30.07
2023-01-29T19:00:24.036Z,23.27
2023-01-29T19:02:26.381Z,19.20
2023-01-29T19:04:28.673Z,18.73
2023-01-29T19:06:33.837Z,22.40
2023-01-29T19:08:36.273Z,32.27
2023-01-29T19:10:38.480Z,35.20
2023-01-29T19:12:42.315Z,41.37
2023-01-29T19:14:44.508Z,49.00
2023-01-29T19:16:48.984Z,57.57
2023-01-29T19:18:52.652Z,59.10
2023-01-29T19:20:55.245Z,63.77
2023-01-29T19:22:57.610Z,60.83
2023-01-29T19:25:00.072Z,64.00
2023-01-29T19:27:03.252Z,55.80
2023-01-29T19:29:05.545Z,51.27
2023-01-29T19:31:09.484Z,41.87
2023-01-29T19:33:11.675Z,37.23
2023-01-29T19:35:13.909Z,35.57
2023-01-29T19:37:16.162Z,61.87
2023-01-29T19:39:18.287Z,58.03
2023-01-29T19:41:20.789Z,55.93
2023-01-29T19:43:22.878Z,51.70
2023-01-29T19:45:49.060Z,44.27
2023-01-29T19:47:49.308Z,41.07
2023-01-29T19:49:51.343Z,40.67
2023-01-29T19:51:56.179Z,42.03
2023-01-29T19:53:58.846Z,37.57
2023-01-29T19:56:05.440Z,36.37
2023-01-29T19:58:07.866Z,41.83
2023-01-29T20:00:14.936Z,49.73
2023-01-29T20:02:17.266Z,57.63
2023-01-29T20:04:19.421Z,53.70
2023-01-29T20:06:25.120Z,56.53
2023-01-29T20:08:27.341Z,54.83
2023-01-29T20:10:29.396Z,51.40
2023-01-29T20:12:31.427Z,49.53
2023-01-29T20:14:33.479Z,49.33
2023-01-29T20:16:37.184Z,44.43
2023-01-29T20:18:39.625Z,39.07
2023-01-29T20:20:47.048Z,33.70
2023-01-29T20:22:49.142Z,30.97
2023-01-29T20:24:51.119Z,31.23
2023-01-29T20:26:53.172Z,36.40
2023-01-29T20:28:55.238Z,39.27
2023-01-29T20:31:00.248Z,35.23
2023-01-29T20:33:03.848Z,44.97
2023-01-29T20:35:10.429Z,49.27
2023-01-29T20:37:14.664Z,45.90
2023-01-29T20:39:17.071Z,37.63
2023-01-29T20:41:20.064Z,51.00
2023-01-29T20:43:23.554Z,51.17
2023-01-29T20:45:25.803Z,41.27
2023-01-29T20:47:28.254Z,38.67
2023-01-29T20:49:30.311Z,37.80
2023-01-29T20:51:32.771Z,51.70
2023-01-29T20:53:37.469Z,42.17
2023-01-29T20:55:40.869Z,42.87
2023-01-29T20:57:43.211Z,46.33
2023-01-29T20:59:45.280Z,73.63
2023-01-29T21:01:47.357Z,69.10
2023-01-29T21:03:49.855Z,79.27
2023-01-29T21:05:52.424Z,57.27
2023-01-29T21:07:54.599Z,42.80
2023-01-29T21:09:56.541Z,36.30
2023-01-29T21:11:58.720Z,43.10
2023-01-29T21:14:01.987Z,46.63
2023-01-29T21:16:04.666Z,39.37
2023-01-29T21:18:07.243Z,36.70
2023-01-29T21:20:10.085Z,34.90
2023-01-29T21:22:12.210Z,30.40
2023-01-29T21:24:15.260Z,36.80
2023-01-29T21:26:18.683Z,118.83
2023-01-29T21:28:20.851Z,74.87
2023-01-29T21:30:22.917Z,51.47
2023-01-29T21:32:24.972Z,45.60
2023-01-29T21:34:27.213Z,37.90
2023-01-29T21:36:29.548Z,42.77
2023-01-29T21:38:31.981Z,51.90
2023-01-29T21:40:34.046Z,84.27
2023-01-29T21:42:54.623Z,66.17
2023-01-29T21:44:56.737Z,59.07
2023-01-29T21:46:59.443Z,55.07
2023-01-29T21:49:01.475Z,45.50
2023-01-29T21:51:03.863Z,69.30
2023-01-29T21:53:06.319Z,59.60
2023-01-29T21:55:09.019Z,44.13
2023-01-29T21:57:15.081Z,39.37
2023-01-29T21:59:17.319Z,38.07
2023-01-29T22:01:37.830Z,41.57
2023-01-29T22:03:40.686Z,39.07
2023-01-29T22:05:44.579Z,29.33
2023-01-29T22:07:47.305Z,31.83
2023-01-29T22:09:50.068Z,28.43
2023-01-29T22:11:52.444Z,35.87
2023-01-29T22:13:54.479Z,29.93
2023-01-29T22:15:59.496Z,38.70
2023-01-29T22:18:01.731Z,48.57
2023-01-29T22:20:04.352Z,37.77
2023-01-29T22:22:07.993Z,39.67
2023-01-29T22:24:12.632Z,44.13
2023-01-29T22:26:14.761Z,42.87
2023-01-29T22:28:17.710Z,43.77
2023-01-29T22:30:20.047Z,40.30
2023-01-29T22:32:22.510Z,38.40
2023-01-29T22:34:24.435Z,36.77
2023-01-29T22:36:26.380Z,42.20
2023-01-29T22:38:29.308Z,42.07
2023-01-29T22:40:34.395Z,36.17
2023-01-29T22:42:36.525Z,35.87
2023-01-29T22:44:39.137Z,35.20
2023-01-29T22:46:41.291Z,38.63
2023-01-29T22:48:43.552Z,37.33
2023-01-29T22:50:53.936Z,38.93
2023-01-29T22:52:56.501Z,39.27
2023-01-29T22:54:58.668Z,38.50
2023-01-29T22:57:00.832Z,35.57
2023-01-29T22:59:03.841Z,28.40
2023-01-29T23:01:05.770Z,30.87
2023-01-29T23:03:07.762Z,26.27
2023-01-29T23:05:11.883Z,23.30
2023-01-29T23:07:13.788Z,20.57
2023-01-29T23:09:15.848Z,19.77
2023-01-29T23:11:20.691Z,15.33
2023-01-29T23:13:22.761Z,16.90
2023-01-29T23:15:24.749Z,21.20
2023-01-29T23:17:26.832Z,20.10
2023-01-29T23:19:31.723Z,19.57
2023-01-29T23:21:33.945Z,21.07
2023-01-29T23:23:37.876Z,16.43
2023-01-29T23:25:58.761Z,18.70
2023-01-29T23:28:00.877Z,19.20
2023-01-29T23:30:02.848Z,20.80
2023-01-29T23:32:05.229Z,23.77
2023-01-29T23:34:07.393Z,33.17
2023-01-29T23:36:09.973Z,33.03
2023-01-29T23:38:12.101Z,31.43
2023-01-29T23:40:14.612Z,31.93
2023-01-29T23:42:16.794Z,59.83
2023-01-29T23:44:19.938Z,63.67
2023-01-29T23:46:22.202Z,61.77
2023-01-29T23:48:24.548Z,80.87
2023-01-29T23:50:26.758Z,71.20
2023-01-29T23:52:28.900Z,68.70
2023-01-29T23:54:31.066Z,62.83
2023-01-29T23:56:33.169Z,56.23
2023-01-29T23:58:35.371Z,38.90
